Terminal Aerodrome Forecast
Issued by NWS Grand Forks, ND

Home | Current Version | Previous Version | Graphics & Text | Print | Product List | Glossary On
Versions: 1 2 3 4 5 6 7 8 9 10 11 12 13 14 15 16
659
FTUS43 KFGF 190536
TAFFAR
TAF
KFAR 190536Z 1906/2006 17007KT P6SM SKC
     FM191300 17007KT 4SM BR SKC
     FM191600 17008KT P6SM FEW100
     FM192200 17008KT P6SM BKN090
     FM200300 16008KT P6SM BKN030
     FM200500 16008KT P6SM BKN015=

USA.gov is the U.S. government's official web portal to all federal, state and local government web resources and services.